sensor_id;sensor_type;location;lat;lon;timestamp;pressure;altitude;pressure_sealevel;temperature;humidity
36726;BME280;44936;52.086;5.150;2023-02-15T00:00:03;103238.13;;;2.88;100.00
36726;BME280;44936;52.086;5.150;2023-02-15T00:02:28;103239.50;;;2.83;100.00
36726;BME280;44936;52.086;5.150;2023-02-15T00:04:54;103239.25;;;2.80;100.00
36726;BME280;44936;52.086;5.150;2023-02-15T00:07:21;103234.75;;;2.77;100.00
36726;BME280;44936;52.086;5.150;2023-02-15T00:09:46;103224.81;;;2.72;100.00
36726;BME280;44936;52.086;5.150;2023-02-15T00:12:12;103244.53;;;2.81;100.00
36726;BME280;44936;52.086;5.150;2023-02-15T00:14:37;103202.06;;;2.56;100.00
36726;BME280;44936;52.086;5.150;2023-02-15T00:17:02;103246.34;;;2.82;100.00
36726;BME280;44936;52.086;5.150;2023-02-15T00:19:28;103236.75;;;2.81;100.00
36726;BME280;44936;52.086;5.150;2023-02-15T00:21:53;103240.94;;;2.79;100.00
36726;BME280;44936;52.086;5.150;2023-02-15T00:24:19;103224.28;;;2.76;100.00
36726;BME280;44936;52.086;5.150;2023-02-15T00:26:46;103223.47;;;2.77;100.00
36726;BME280;44936;52.086;5.150;2023-02-15T00:29:12;103223.47;;;2.77;100.00
36726;BME280;44936;52.086;5.150;2023-02-15T00:31:39;103208.28;;;2.70;100.00
36726;BME280;44936;52.086;5.150;2023-02-15T00:34:11;103217.16;;;2.73;100.00
36726;BME280;44936;52.086;5.150;2023-02-15T00:36:37;103211.66;;;2.69;100.00
36726;BME280;44936;52.086;5.150;2023-02-15T00:39:02;103203.09;;;2.58;100.00
36726;BME280;44936;52.086;5.150;2023-02-15T00:41:29;103221.00;;;2.67;100.00
36726;BME280;44936;52.086;5.150;2023-02-15T00:43:55;103215.59;;;2.64;100.00
36726;BME280;44936;52.086;5.150;2023-02-15T00:46:20;103214.94;;;2.66;100.00
36726;BME280;44936;52.086;5.150;2023-02-15T00:48:46;103209.50;;;2.63;100.00
36726;BME280;44936;52.086;5.150;2023-02-15T00:51:11;103209.28;;;2.60;100.00
36726;BME280;44936;52.086;5.150;2023-02-15T00:53:36;103206.81;;;2.62;100.00
36726;BME280;44936;52.086;5.150;2023-02-15T00:56:02;103203.09;;;2.58;100.00
36726;BME280;44936;52.086;5.150;2023-02-15T00:58:27;103216.16;;;2.60;100.00
36726;BME280;44936;52.086;5.150;2023-02-15T01:00:52;103213.38;;;2.57;100.00
36726;BME280;44936;52.086;5.150;2023-02-15T01:03:19;103202.75;;;2.53;100.00
36726;BME280;44936;52.086;5.150;2023-02-15T01:05:46;103201.53;;;2.48;100.00
36726;BME280;44936;52.086;5.150;2023-02-15T01:08:12;103219.88;;;2.51;100.00
36726;BME280;44936;52.086;5.150;2023-02-15T01:10:37;103212.91;;;2.50;100.00
36726;BME280;44936;52.086;5.150;2023-02-15T01:13:04;103212.13;;;2.51;100.00
36726;BME280;44936;52.086;5.150;2023-02-15T01:15:29;103195.53;;;2.38;100.00
36726;BME280;44936;52.086;5.150;2023-02-15T01:17:55;103206.81;;;2.50;100.00
36726;BME280;44936;52.086;5.150;2023-02-15T01:20:23;103197.16;;;2.47;100.00
36726;BME280;44936;52.086;5.150;2023-02-15T01:22:49;103196.34;;;2.48;100.00
36726;BME280;44936;52.086;5.150;2023-02-15T01:25:19;103189.47;;;2.49;100.00
36726;BME280;44936;52.086;5.150;2023-02-15T01:27:46;103179.78;;;2.46;100.00
36726;BME280;44936;52.086;5.150;2023-02-15T01:30:12;103174.59;;;2.46;100.00
36726;BME280;44936;52.086;5.150;2023-02-15T01:32:38;103128.81;;;2.22;100.00
36726;BME280;44936;52.086;5.150;2023-02-15T01:35:04;103159.84;;;2.45;100.00
36726;BME280;44936;52.086;5.150;2023-02-15T01:37:31;103155.94;;;2.39;100.00
36726;BME280;44936;52.086;5.150;2023-02-15T01:39:57;103157.84;;;2.41;100.00
36726;BME280;44936;52.086;5.150;2023-02-15T01:42:23;103140.84;;;2.33;100.00
36726;BME280;44936;52.086;5.150;2023-02-15T01:44:56;103137.47;;;2.34;100.00
36726;BME280;44936;52.086;5.150;2023-02-15T01:52:36;103148.28;;;2.40;100.00
36726;BME280;44936;52.086;5.150;2023-02-15T01:55:02;103140.41;;;2.39;100.00
36726;BME280;44936;52.086;5.150;2023-02-15T01:57:29;103145.44;;;2.37;100.00
36726;BME280;44936;52.086;5.150;2023-02-15T01:59:57;103150.63;;;2.37;100.00
36726;BME280;44936;52.086;5.150;2023-02-15T02:02:24;103128.31;;;2.27;100.00
36726;BME280;44936;52.086;5.150;2023-02-15T02:04:54;103130.13;;;2.28;100.00
36726;BME280;44936;52.086;5.150;2023-02-15T02:07:24;103139.25;;;2.35;100.00
36726;BME280;44936;52.086;5.150;2023-02-15T02:09:52;103129.09;;;2.38;100.00
36726;BME280;44936;52.086;5.150;2023-02-15T02:12:18;103119.22;;;2.33;100.00
36726;BME280;44936;52.086;5.150;2023-02-15T02:14:45;103108.75;;;2.31;100.00
36726;BME280;44936;52.086;5.150;2023-02-15T02:36:33;103076.44;;;2.26;100.00
36726;BME280;44936;52.086;5.150;2023-02-15T02:39:18;103079.72;;;2.23;100.00
36726;BME280;44936;52.086;5.150;2023-02-15T02:41:56;103085.69;;;2.22;100.00
36726;BME280;44936;52.086;5.150;2023-02-15T02:44:44;103068.91;;;2.17;100.00
36726;BME280;44936;52.086;5.150;2023-02-15T02:47:21;103084.00;;;2.23;100.00
36726;BME280;44936;52.086;5.150;2023-02-15T02:49:52;103074.28;;;2.20;100.00
36726;BME280;44936;52.086;5.150;2023-02-15T02:52:57;103070.34;;;2.25;100.00
36726;BME280;44936;52.086;5.150;2023-02-15T02:58:03;103067.47;;;2.21;100.00
36726;BME280;44936;52.086;5.150;2023-02-15T03:00:34;103064.06;;;2.22;100.00
36726;BME280;44936;52.086;5.150;2023-02-15T03:06:05;103053.25;;;2.16;100.00
36726;BME280;44936;52.086;5.150;2023-02-15T03:08:40;103051.69;;;2.18;100.00
36726;BME280;44936;52.086;5.150;2023-02-15T03:11:08;103057.66;;;2.17;100.00
36726;BME280;44936;52.086;5.150;2023-02-15T03:13:34;103047.41;;;2.07;100.00
36726;BME280;44936;52.086;5.150;2023-02-15T03:16:00;103017.03;;;1.92;100.00
36726;BME280;44936;52.086;5.150;2023-02-15T03:18:52;103014.44;;;1.92;100.00
36726;BME280;44936;52.086;5.150;2023-02-15T03:21:35;103035.03;;;2.03;100.00
36726;BME280;44936;52.086;5.150;2023-02-15T03:24:09;103044.38;;;2.12;100.00
36726;BME280;44936;52.086;5.150;2023-02-15T03:26:36;103048.09;;;2.16;100.00
36726;BME280;44936;52.086;5.150;2023-02-15T03:29:03;103035.47;;;2.09;100.00
36726;BME280;44936;52.086;5.150;2023-02-15T03:31:33;103037.63;;;2.14;100.00
36726;BME280;44936;52.086;5.150;2023-02-15T03:34:04;103034.78;;;2.11;100.00
36726;BME280;44936;52.086;5.150;2023-02-15T03:41:48;103040.88;;;2.12;100.00
36726;BME280;44936;52.086;5.150;2023-02-15T03:44:27;103034.13;;;2.14;100.00
36726;BME280;44936;52.086;5.150;2023-02-15T03:47:06;103035.94;;;2.15;100.00
36726;BME280;44936;52.086;5.150;2023-02-15T03:49:42;103048.28;;;2.19;100.00
36726;BME280;44936;52.086;5.150;2023-02-15T03:52:11;102991.06;;;1.91;100.00
36726;BME280;44936;52.086;5.150;2023-02-15T03:54:40;103018.16;;;2.08;100.00
36726;BME280;44936;52.086;5.150;2023-02-15T03:57:19;103032.56;;;2.16;100.00
36726;BME280;44936;52.086;5.150;2023-02-15T04:00:16;103012.09;;;2.07;100.00
36726;BME280;44936;52.086;5.150;2023-02-15T04:03:26;103027.38;;;2.16;100.00
36726;BME280;44936;52.086;5.150;2023-02-15T04:05:54;103000.47;;;2.02;100.00
36726;BME280;44936;52.086;5.150;2023-02-15T04:08:20;102997.25;;;2.05;100.00
36726;BME280;44936;52.086;5.150;2023-02-15T04:10:45;103015.22;;;2.15;100.00
36726;BME280;44936;52.086;5.150;2023-02-15T04:13:29;103003.97;;;2.14;100.00
36726;BME280;44936;52.086;5.150;2023-02-15T04:15:55;103006.66;;;2.16;100.00
36726;BME280;44936;52.086;5.150;2023-02-15T04:18:34;102995.66;;;2.07;100.00
36726;BME280;44936;52.086;5.150;2023-02-15T04:21:20;103008.16;;;2.12;100.00
36726;BME280;44936;52.086;5.150;2023-02-15T04:24:04;103010.72;;;2.12;100.00
36726;BME280;44936;52.086;5.150;2023-02-15T04:26:49;103016.44;;;2.20;100.00
36726;BME280;44936;52.086;5.150;2023-02-15T04:29:18;103007.66;;;2.18;100.00
36726;BME280;44936;52.086;5.150;2023-02-15T04:31:43;103012.06;;;2.19;100.00
36726;BME280;44936;52.086;5.150;2023-02-15T04:34:09;103006.47;;;2.13;100.00
36726;BME280;44936;52.086;5.150;2023-02-15T04:36:36;103003.38;;;2.18;100.00
36726;BME280;44936;52.086;5.150;2023-02-15T04:39:01;102997.00;;;2.13;100.00
36726;BME280;44936;52.086;5.150;2023-02-15T04:41:26;102982.25;;;2.01;100.00
36726;BME280;44936;52.086;5.150;2023-02-15T04:43:52;103009.38;;;2.06;100.00
36726;BME280;44936;52.086;5.150;2023-02-15T04:46:17;103024.34;;;2.10;100.00
36726;BME280;44936;52.086;5.150;2023-02-15T04:48:43;103051.91;;;2.09;100.00
36726;BME280;44936;52.086;5.150;2023-02-15T04:51:09;103068.34;;;2.10;100.00
36726;BME280;44936;52.086;5.150;2023-02-15T04:53:34;103102.22;;;2.01;100.00
36726;BME280;44936;52.086;5.150;2023-02-15T04:56:00;103138.81;;;2.17;100.00
36726;BME280;44936;52.086;5.150;2023-02-15T04:58:25;103165.06;;;2.22;100.00
36726;BME280;44936;52.086;5.150;2023-02-15T05:00:54;103162.31;;;2.20;100.00
36726;BME280;44936;52.086;5.150;2023-02-15T05:03:20;103176.19;;;2.21;100.00
36726;BME280;44936;52.086;5.150;2023-02-15T05:05:45;103205.22;;;2.28;100.00
36726;BME280;44936;52.086;5.150;2023-02-15T05:08:10;103220.44;;;2.24;100.00
36726;BME280;44936;52.086;5.150;2023-02-15T05:10:36;103216.47;;;2.17;100.00
36726;BME280;44936;52.086;5.150;2023-02-15T05:13:01;103251.84;;;2.28;100.00
36726;BME280;44936;52.086;5.150;2023-02-15T05:15:26;103240.56;;;2.28;100.00
36726;BME280;44936;52.086;5.150;2023-02-15T05:17:52;103229.78;;;2.34;100.00
36726;BME280;44936;52.086;5.150;2023-02-15T05:20:17;103240.94;;;2.44;100.00
36726;BME280;44936;52.086;5.150;2023-02-15T05:22:43;103228.09;;;2.34;100.00
36726;BME280;44936;52.086;5.150;2023-02-15T05:25:09;103218.06;;;2.27;100.00
36726;BME280;44936;52.086;5.150;2023-02-15T05:27:53;103221.56;;;2.27;100.00
36726;BME280;44936;52.086;5.150;2023-02-15T05:30:37;103242.38;;;2.29;100.00
36726;BME280;44936;52.086;5.150;2023-02-15T05:33:05;103244.44;;;2.33;100.00
36726;BME280;44936;52.086;5.150;2023-02-15T05:35:31;103252.53;;;2.38;100.00
36726;BME280;44936;52.086;5.150;2023-02-15T05:37:56;103246.22;;;2.46;100.00
36726;BME280;44936;52.086;5.150;2023-02-15T05:40:22;103242.84;;;2.47;100.00
36726;BME280;44936;52.086;5.150;2023-02-15T05:42:47;103213.81;;;2.39;100.00
36726;BME280;44936;52.086;5.150;2023-02-15T05:45:13;103202.56;;;2.39;100.00
36726;BME280;44936;52.086;5.150;2023-02-15T05:47:38;103198.81;;;2.35;100.00
36726;BME280;44936;52.086;5.150;2023-02-15T05:50:04;103207.84;;;2.40;100.00
36726;BME280;44936;52.086;5.150;2023-02-15T05:52:29;103207.81;;;2.28;100.00
36726;BME280;44936;52.086;5.150;2023-02-15T05:54:55;103213.78;;;2.27;100.00
36726;BME280;44936;52.086;5.150;2023-02-15T05:57:20;103222.13;;;2.23;100.00
36726;BME280;44936;52.086;5.150;2023-02-15T05:59:45;103231.81;;;2.26;100.00
36726;BME280;44936;52.086;5.150;2023-02-15T06:02:10;103236.19;;;2.27;100.00
36726;BME280;44936;52.086;5.150;2023-02-15T06:04:36;103232.28;;;2.32;100.00
36726;BME280;44936;52.086;5.150;2023-02-15T06:07:01;103225.94;;;2.28;100.00
36726;BME280;44936;52.086;5.150;2023-02-15T06:09:27;103235.66;;;2.31;100.00
36726;BME280;44936;52.086;5.150;2023-02-15T06:11:52;103228.00;;;2.21;100.00
36726;BME280;44936;52.086;5.150;2023-02-15T06:14:17;103244.75;;;2.38;100.00
36726;BME280;44936;52.086;5.150;2023-02-15T06:16:43;103244.91;;;2.39;100.00
36726;BME280;44936;52.086;5.150;2023-02-15T06:19:09;103234.75;;;2.42;100.00
36726;BME280;44936;52.086;5.150;2023-02-15T06:21:34;103213.34;;;2.33;100.00
36726;BME280;44936;52.086;5.150;2023-02-15T06:23:59;103232.03;;;2.29;100.00
36726;BME280;44936;52.086;5.150;2023-02-15T06:26:25;103219.22;;;2.31;100.00
36726;BME280;44936;52.086;5.150;2023-02-15T06:28:50;103204.78;;;2.34;100.00
36726;BME280;44936;52.086;5.150;2023-02-15T06:31:15;103198.34;;;2.29;100.00
36726;BME280;44936;52.086;5.150;2023-02-15T06:33:41;103186.44;;;2.31;100.00
36726;BME280;44936;52.086;5.150;2023-02-15T06:36:06;103184.19;;;2.36;100.00
36726;BME280;44936;52.086;5.150;2023-02-15T06:38:32;103180.47;;;2.32;100.00
36726;BME280;44936;52.086;5.150;2023-02-15T06:40:57;103176.88;;;2.30;100.00
36726;BME280;44936;52.086;5.150;2023-02-15T06:43:23;103175.84;;;2.28;100.00
36726;BME280;44936;52.086;5.150;2023-02-15T06:45:48;103180.81;;;2.25;100.00
36726;BME280;44936;52.086;5.150;2023-02-15T06:48:13;103197.66;;;2.20;100.00
36726;BME280;44936;52.086;5.150;2023-02-15T06:50:39;103215.56;;;2.17;100.00
36726;BME280;44936;52.086;5.150;2023-02-15T06:53:04;103211.50;;;2.20;100.00
36726;BME280;44936;52.086;5.150;2023-02-15T06:55:30;103220.91;;;2.30;100.00
36726;BME280;44936;52.086;5.150;2023-02-15T06:57:55;103214.25;;;2.34;100.00
36726;BME280;44936;52.086;5.150;2023-02-15T07:00:21;103201.72;;;2.28;100.00
36726;BME280;44936;52.086;5.150;2023-02-15T07:02:48;103202.09;;;2.21;100.00
36726;BME280;44936;52.086;5.150;2023-02-15T07:05:14;103208.50;;;2.26;100.00
36726;BME280;44936;52.086;5.150;2023-02-15T07:07:40;103200.41;;;2.33;100.00
36726;BME280;44936;52.086;5.150;2023-02-15T07:10:05;103197.91;;;2.23;100.00
36726;BME280;44936;52.086;5.150;2023-02-15T07:12:31;103198.94;;;2.25;100.00
36726;BME280;44936;52.086;5.150;2023-02-15T07:15:18;103191.28;;;2.26;100.00
36726;BME280;44936;52.086;5.150;2023-02-15T07:17:46;103203.31;;;2.26;100.00
36726;BME280;44936;52.086;5.150;2023-02-15T07:20:17;103201.19;;;2.32;100.00
36726;BME280;44936;52.086;5.150;2023-02-15T07:22:43;103206.13;;;2.29;100.00
36726;BME280;44936;52.086;5.150;2023-02-15T07:25:10;103192.75;;;2.35;100.00
36726;BME280;44936;52.086;5.150;2023-02-15T07:27:35;103191.63;;;2.31;100.00
36726;BME280;44936;52.086;5.150;2023-02-15T07:30:01;103185.41;;;2.29;100.00
36726;BME280;44936;52.086;5.150;2023-02-15T07:32:30;103187.53;;;2.46;100.00
36726;BME280;44936;52.086;5.150;2023-02-15T07:34:56;103174.06;;;2.50;100.00
36726;BME280;44936;52.086;5.150;2023-02-15T07:37:22;103159.63;;;2.42;100.00
36726;BME280;44936;52.086;5.150;2023-02-15T07:39:47;103149.28;;;2.42;100.00
36726;BME280;44936;52.086;5.150;2023-02-15T07:42:12;103142.84;;;2.49;100.00
36726;BME280;44936;52.086;5.150;2023-02-15T07:44:38;103132.25;;;2.46;100.00
36726;BME280;44936;52.086;5.150;2023-02-15T07:47:03;103124.06;;;2.40;100.00
36726;BME280;44936;52.086;5.150;2023-02-15T07:49:28;103139.72;;;2.41;100.00
36726;BME280;44936;52.086;5.150;2023-02-15T07:51:54;103143.66;;;2.48;100.00
36726;BME280;44936;52.086;5.150;2023-02-15T07:54:19;103135.66;;;2.57;100.00
36726;BME280;44936;52.086;5.150;2023-02-15T07:56:44;103128.44;;;2.52;100.00
36726;BME280;44936;52.086;5.150;2023-02-15T07:59:10;103124.84;;;2.50;100.00
36726;BME280;44936;52.086;5.150;2023-02-15T08:01:37;103144.00;;;2.41;100.00
36726;BME280;44936;52.086;5.150;2023-02-15T08:04:04;103147.38;;;2.40;100.00
36726;BME280;44936;52.086;5.150;2023-02-15T08:06:33;103171.34;;;2.49;100.00
36726;BME280;44936;52.086;5.150;2023-02-15T08:08:59;103177.75;;;2.54;100.00
36726;BME280;44936;52.086;5.150;2023-02-15T08:11:27;103170.44;;;2.60;100.00
36726;BME280;44936;52.086;5.150;2023-02-15T08:14:09;103175.03;;;2.64;100.00
36726;BME280;44936;52.086;5.150;2023-02-15T08:19:25;103176.84;;;2.77;100.00
36726;BME280;44936;52.086;5.150;2023-02-15T08:21:52;103173.56;;;2.79;100.00
36726;BME280;44936;52.086;5.150;2023-02-15T08:24:20;103187.41;;;2.80;100.00
36726;BME280;44936;52.086;5.150;2023-02-15T08:26:46;103183.13;;;2.80;100.00
36726;BME280;44936;52.086;5.150;2023-02-15T08:29:14;103189.22;;;2.93;100.00
36726;BME280;44936;52.086;5.150;2023-02-15T08:31:39;103165.69;;;2.78;100.00
36726;BME280;44936;52.086;5.150;2023-02-15T08:34:10;103186.28;;;2.88;100.00
36726;BME280;44936;52.086;5.150;2023-02-15T08:36:36;103188.63;;;2.97;100.00
36726;BME280;44936;52.086;5.150;2023-02-15T08:39:04;103196.59;;;3.00;100.00
36726;BME280;44936;52.086;5.150;2023-02-15T08:41:32;103196.84;;;3.03;100.00
36726;BME280;44936;52.086;5.150;2023-02-15T08:43:59;103190.06;;;3.05;100.00
36726;BME280;44936;52.086;5.150;2023-02-15T08:46:30;103193.22;;;3.12;100.00
36726;BME280;44936;52.086;5.150;2023-02-15T08:48:57;103194.09;;;3.13;100.00
36726;BME280;44936;52.086;5.150;2023-02-15T08:51:25;103198.25;;;3.23;100.00
36726;BME280;44936;52.086;5.150;2023-02-15T08:53:58;103189.09;;;3.28;100.00
36726;BME280;44936;52.086;5.150;2023-02-15T08:56:27;103189.50;;;3.34;100.00
36726;BME280;44936;52.086;5.150;2023-02-15T08:58:53;103199.53;;;3.41;100.00
36726;BME280;44936;52.086;5.150;2023-02-15T09:01:21;103203.91;;;3.42;100.00
36726;BME280;44936;52.086;5.150;2023-02-15T09:03:52;103199.16;;;3.48;100.00
36726;BME280;44936;52.086;5.150;2023-02-15T09:06:20;103205.56;;;3.53;100.00
36726;BME280;44936;52.086;5.150;2023-02-15T09:08:46;103205.19;;;3.60;100.00
36726;BME280;44936;52.086;5.150;2023-02-15T09:11:17;103200.59;;;3.56;100.00
36726;BME280;44936;52.086;5.150;2023-02-15T09:13:48;103205.78;;;3.56;100.00
36726;BME280;44936;52.086;5.150;2023-02-15T09:16:14;103209.03;;;3.65;100.00
36726;BME280;44936;52.086;5.150;2023-02-15T09:18:42;103208.06;;;3.77;100.00
36726;BME280;44936;52.086;5.150;2023-02-15T09:21:10;103204.03;;;3.68;100.00
36726;BME280;44936;52.086;5.150;2023-02-15T09:23:36;103207.69;;;3.84;100.00
36726;BME280;44936;52.086;5.150;2023-02-15T09:26:06;103205.88;;;3.83;100.00
36726;BME280;44936;52.086;5.150;2023-02-15T09:28:32;103201.88;;;3.88;100.00
36726;BME280;44936;52.086;5.150;2023-02-15T09:31:14;103207.69;;;3.97;100.00
36726;BME280;44936;52.086;5.150;2023-02-15T09:33:41;103198.88;;;4.07;100.00
36726;BME280;44936;52.086;5.150;2023-02-15T09:36:20;103199.25;;;4.13;100.00
36726;BME280;44936;52.086;5.150;2023-02-15T09:39:09;103204.38;;;4.24;100.00
36726;BME280;44936;52.086;5.150;2023-02-15T09:47:48;103194.69;;;4.35;100.00
36726;BME280;44936;52.086;5.150;2023-02-15T09:55:38;103212.38;;;4.67;100.00
36726;BME280;44936;52.086;5.150;2023-02-15T10:01:15;103211.56;;;4.81;100.00
36726;BME280;44936;52.086;5.150;2023-02-15T10:06:48;103217.53;;;4.94;100.00
36726;BME280;44936;52.086;5.150;2023-02-15T10:09:43;103213.72;;;5.02;100.00
36726;BME280;44936;52.086;5.150;2023-02-15T10:20:52;103224.88;;;5.27;100.00
36726;BME280;44936;52.086;5.150;2023-02-15T10:26:30;103233.22;;;5.50;100.00
36726;BME280;44936;52.086;5.150;2023-02-15T10:31:38;103234.78;;;5.61;100.00
36726;BME280;44936;52.086;5.150;2023-02-15T10:34:20;103226.06;;;5.60;100.00
36726;BME280;44936;52.086;5.150;2023-02-15T10:58:29;103255.31;;;6.57;100.00
36726;BME280;44936;52.086;5.150;2023-02-15T11:06:22;103234.59;;;6.74;100.00
36726;BME280;44936;52.086;5.150;2023-02-15T11:08:55;103229.81;;;6.82;100.00
36726;BME280;44936;52.086;5.150;2023-02-15T11:11:30;103217.09;;;6.88;100.00
36726;BME280;44936;52.086;5.150;2023-02-15T11:14:02;103210.09;;;6.87;100.00
36726;BME280;44936;52.086;5.150;2023-02-15T11:16:38;103195.69;;;6.94;100.00
36726;BME280;44936;52.086;5.150;2023-02-15T11:19:22;103205.88;;;6.89;100.00
36726;BME280;44936;52.086;5.150;2023-02-15T11:21:55;103196.34;;;7.06;100.00
36726;BME280;44936;52.086;5.150;2023-02-15T11:24:27;103191.75;;;7.17;100.00
36726;BME280;44936;52.086;5.150;2023-02-15T11:27:03;103190.75;;;7.31;100.00
36726;BME280;44936;52.086;5.150;2023-02-15T11:34:58;103177.38;;;7.57;100.00
36726;BME280;44936;52.086;5.150;2023-02-15T11:40:28;103135.97;;;7.65;100.00
36726;BME280;44936;52.086;5.150;2023-02-15T11:43:02;103140.16;;;7.78;100.00
36726;BME280;44936;52.086;5.150;2023-02-15T11:45:31;103143.38;;;7.90;100.00
36726;BME280;44936;52.086;5.150;2023-02-15T11:47:58;103139.56;;;8.01;100.00
36726;BME280;44936;52.086;5.150;2023-02-15T11:50:28;103105.78;;;8.04;100.00
36726;BME280;44936;52.086;5.150;2023-02-15T11:53:00;103108.66;;;8.10;100.00
36726;BME280;44936;52.086;5.150;2023-02-15T11:55:27;103099.41;;;8.17;100.00
36726;BME280;44936;52.086;5.150;2023-02-15T12:00:49;103097.72;;;8.35;100.00
36726;BME280;44936;52.086;5.150;2023-02-15T12:06:04;103088.88;;;8.51;100.00
36726;BME280;44936;52.086;5.150;2023-02-15T12:08:40;103097.47;;;8.66;100.00
36726;BME280;44936;52.086;5.150;2023-02-15T12:11:09;103089.81;;;8.71;100.00
36726;BME280;44936;52.086;5.150;2023-02-15T12:13:53;103078.81;;;8.78;100.00
36726;BME280;44936;52.086;5.150;2023-02-15T12:16:19;103071.16;;;8.83;100.00
36726;BME280;44936;52.086;5.150;2023-02-15T12:18:46;103038.03;;;8.83;100.00
36726;BME280;44936;52.086;5.150;2023-02-15T12:21:15;103017.19;;;8.85;100.00
36726;BME280;44936;52.086;5.150;2023-02-15T12:23:51;103035.06;;;9.14;100.00
36726;BME280;44936;52.086;5.150;2023-02-15T12:26:43;103026.22;;;9.31;100.00
36726;BME280;44936;52.086;5.150;2023-02-15T12:29:23;102987.50;;;9.24;100.00
36726;BME280;44936;52.086;5.150;2023-02-15T12:31:51;102990.56;;;9.35;100.00
36726;BME280;44936;52.086;5.150;2023-02-15T12:34:29;102982.25;;;9.45;100.00
36726;BME280;44936;52.086;5.150;2023-02-15T12:36:57;102971.28;;;9.54;100.00
36726;BME280;44936;52.086;5.150;2023-02-15T12:39:27;102963.41;;;9.54;100.00
36726;BME280;44936;52.086;5.150;2023-02-15T12:44:21;102946.22;;;9.60;100.00
36726;BME280;44936;52.086;5.150;2023-02-15T12:49:21;102969.50;;;9.74;100.00
36726;BME280;44936;52.086;5.150;2023-02-15T12:51:55;102965.84;;;9.70;100.00
36726;BME280;44936;52.086;5.150;2023-02-15T12:56:49;102977.22;;;9.50;100.00
36726;BME280;44936;52.086;5.150;2023-02-15T12:59:15;102984.97;;;9.47;100.00
36726;BME280;44936;52.086;5.150;2023-02-15T13:01:41;102996.28;;;9.46;100.00
36726;BME280;44936;52.086;5.150;2023-02-15T13:04:25;102959.25;;;9.36;100.00
36726;BME280;44936;52.086;5.150;2023-02-15T13:06:54;102980.41;;;9.43;100.00
36726;BME280;44936;52.086;5.150;2023-02-15T13:09:41;102954.69;;;9.12;100.00
36726;BME280;44936;52.086;5.150;2023-02-15T13:12:24;102985.16;;;9.30;100.00
36726;BME280;44936;52.086;5.150;2023-02-15T13:14:52;103001.44;;;9.44;100.00
36726;BME280;44936;52.086;5.150;2023-02-15T13:17:28;102927.09;;;9.41;100.00
36726;BME280;44936;52.086;5.150;2023-02-15T13:20:00;102954.59;;;9.52;100.00
36726;BME280;44936;52.086;5.150;2023-02-15T13:22:47;102949.06;;;9.65;100.00
36726;BME280;44936;52.086;5.150;2023-02-15T13:25:25;102930.72;;;9.65;100.00
36726;BME280;44936;52.086;5.150;2023-02-15T13:27:56;102936.44;;;9.77;100.00
36726;BME280;44936;52.086;5.150;2023-02-15T13:30:30;102913.78;;;9.79;100.00
36726;BME280;44936;52.086;5.150;2023-02-15T13:33:06;102909.03;;;9.69;100.00
36726;BME280;44936;52.086;5.150;2023-02-15T13:35:42;102917.75;;;9.90;100.00
36726;BME280;44936;52.086;5.150;2023-02-15T13:40:52;102932.44;;;9.87;100.00
36726;BME280;44936;52.086;5.150;2023-02-15T13:46:26;102906.28;;;9.88;100.00
36726;BME280;44936;52.086;5.150;2023-02-15T13:52:08;102911.81;;;9.96;100.00
36726;BME280;44936;52.086;5.150;2023-02-15T13:57:53;102916.91;;;9.91;100.00
36726;BME280;44936;52.086;5.150;2023-02-15T14:00:27;102893.31;;;9.91;100.00
36726;BME280;44936;52.086;5.150;2023-02-15T14:03:29;102924.34;;;10.03;100.00
36726;BME280;44936;52.086;5.150;2023-02-15T14:09:05;102922.97;;;10.13;100.00
36726;BME280;44936;52.086;5.150;2023-02-15T14:19:32;102899.50;;;10.16;100.00
36726;BME280;44936;52.086;5.150;2023-02-15T14:24:38;102900.03;;;10.07;100.00
36726;BME280;44936;52.086;5.150;2023-02-15T14:27:41;102899.50;;;9.93;100.00
36726;BME280;44936;52.086;5.150;2023-02-15T14:30:24;102908.44;;;9.99;100.00
36726;BME280;44936;52.086;5.150;2023-02-15T14:32:53;102909.16;;;9.94;100.00
36726;BME280;44936;52.086;5.150;2023-02-15T14:35:27;102875.91;;;9.93;100.00
36726;BME280;44936;52.086;5.150;2023-02-15T14:40:51;102875.81;;;9.90;100.00
36726;BME280;44936;52.086;5.150;2023-02-15T14:43:41;102868.19;;;9.98;100.00
36726;BME280;44936;52.086;5.150;2023-02-15T14:46:25;102890.19;;;10.02;100.00
36726;BME280;44936;52.086;5.150;2023-02-15T14:48:58;102891.63;;;9.93;100.00
36726;BME280;44936;52.086;5.150;2023-02-15T14:56:43;102909.41;;;10.01;100.00
36726;BME280;44936;52.086;5.150;2023-02-15T15:01:55;102908.38;;;9.97;100.00
36726;BME280;44936;52.086;5.150;2023-02-15T15:07:19;102910.47;;;9.83;100.00
36726;BME280;44936;52.086;5.150;2023-02-15T15:09:57;102880.78;;;9.62;100.00
36726;BME280;44936;52.086;5.150;2023-02-15T15:14:54;102900.16;;;9.65;100.00
36726;BME280;44936;52.086;5.150;2023-02-15T15:23:56;102892.47;;;9.48;100.00
36726;BME280;44936;52.086;5.150;2023-02-15T15:26:24;102914.16;;;9.45;100.00
36726;BME280;44936;52.086;5.150;2023-02-15T15:31:23;102893.81;;;9.38;100.00
36726;BME280;44936;52.086;5.150;2023-02-15T15:48:26;102914.69;;;9.16;100.00
36726;BME280;44936;52.086;5.150;2023-02-15T15:50:56;102929.47;;;9.14;100.00
36726;BME280;44936;52.086;5.150;2023-02-15T15:53:25;102937.09;;;9.09;100.00
36726;BME280;44936;52.086;5.150;2023-02-15T15:55:56;102945.44;;;9.00;100.00
36726;BME280;44936;52.086;5.150;2023-02-15T15:58:24;102943.72;;;9.01;100.00
36726;BME280;44936;52.086;5.150;2023-02-15T16:00:54;102946.16;;;8.96;100.00
36726;BME280;44936;52.086;5.150;2023-02-15T16:03:26;102935.25;;;8.86;100.00
36726;BME280;44936;52.086;5.150;2023-02-15T16:05:52;102949.22;;;8.86;100.00
36726;BME280;44936;52.086;5.150;2023-02-15T16:08:32;102975.31;;;8.85;100.00